»·PEaware :: N454AH KCNO-KSBA

N454AH :: KCNO-KSBA

FLIGHT INFORMATION

Flight Status: Arrived
Operator: Privately registered:
United States
More flights under this callsign
Pilot: Andrew H. (17317)
Aircraft: Unknown
(SF50)
More flights by this aircraft type
Origin: KCNO Chino
United States
Destination: KSBA Santa Barbara Mun
United States
More flights between these airports :: More routes between these airports
Route: PDZ V197 POM V264 ITSME V186 DEANO V27 KWANG
File this flight plan on PilotEdge
Remarks: NOVICE
Altitude:
(Current/Filed)
8,000ft
Speed:
(Current/Filed)
260kts
Departed: 05-Feb-19 06:30 PM
Arrived: 05-Feb-19 07:10 PM
Distance/Time
Traveled:
112nm/0:40
Distance/Time
To Go:
Arrived

Flight Plot

Page will automatically refresh every two minutes.


Map Options




Map Legend


Flown Route
Filed Route
Departure Airport
Arrival Airport
Navaid (VOR, NDB)
Fix

Horizontal Profiles

Position Reports

Time Latitude Longitude Heading Altitude Ground
Speed
05-Feb-19 17:45 33.981030 -117.633699 272 646ft 0kts
05-Feb-19 17:46 33.981030 -117.633699 272 646ft 0kts
05-Feb-19 17:47 33.981030 -117.633699 272 646ft 0kts
05-Feb-19 17:48 33.981030 -117.633699 272 646ft 0kts
05-Feb-19 17:49 33.981030 -117.633699 272 646ft 0kts
05-Feb-19 17:50 33.981030 -117.633699 272 646ft 0kts
05-Feb-19 17:51 33.981030 -117.633699 272 646ft 0kts
05-Feb-19 17:52 33.981030 -117.633699 272 646ft 0kts
05-Feb-19 17:53 33.981030 -117.633699 272 646ft 0kts
05-Feb-19 17:54 33.981030 -117.633699 272 646ft 0kts
05-Feb-19 17:55 33.981030 -117.633699 272 646ft 0kts
05-Feb-19 17:56 33.981030 -117.633699 272 646ft 0kts
05-Feb-19 17:57 33.981030 -117.633699 272 646ft 0kts
05-Feb-19 17:58 33.981030 -117.633699 272 646ft 0kts
05-Feb-19 17:59 33.981030 -117.633699 272 646ft 0kts
05-Feb-19 18:00 33.981030 -117.633699 272 646ft 0kts
05-Feb-19 18:01 33.981030 -117.633699 272 646ft 0kts
05-Feb-19 18:02 33.981030 -117.633699 272 646ft 0kts
05-Feb-19 18:03 33.981030 -117.633699 272 646ft 0kts
05-Feb-19 18:04 33.981030 -117.633699 272 646ft 0kts
05-Feb-19 18:05 33.981030 -117.633699 272 646ft 0kts
05-Feb-19 18:06 33.981030 -117.633699 272 646ft 0kts
05-Feb-19 18:07 33.981030 -117.633699 272 646ft 0kts
05-Feb-19 18:08 33.981030 -117.633699 272 646ft 0kts
05-Feb-19 18:09 33.981030 -117.633699 272 646ft 0kts
05-Feb-19 18:10 33.981030 -117.633699 272 646ft 0kts
05-Feb-19 18:11 33.981030 -117.633699 272 646ft 0kts
05-Feb-19 18:12 33.981030 -117.633699 272 646ft 0kts
05-Feb-19 18:13 33.981030 -117.633699 272 646ft 0kts
05-Feb-19 18:14 33.981030 -117.633699 272 646ft 0kts
05-Feb-19 18:15 33.981030 -117.633699 272 646ft 0kts
05-Feb-19 18:16 33.981030 -117.633699 272 646ft 0kts
05-Feb-19 18:17 33.981030 -117.633699 272 646ft 0kts
05-Feb-19 18:18 33.981030 -117.633699 272 646ft 0kts
05-Feb-19 18:19 33.981030 -117.633699 272 646ft 0kts
05-Feb-19 18:20 33.981030 -117.633699 272 646ft 0kts
05-Feb-19 18:21 33.981030 -117.633699 272 646ft 0kts
05-Feb-19 18:22 33.981030 -117.633699 272 646ft 0kts
05-Feb-19 18:23 33.981030 -117.633699 272 646ft 0kts
05-Feb-19 18:24 33.981034 -117.634050 269 646ft 6kts
05-Feb-19 18:25 33.980532 -117.633831 90 645ft 6kts
05-Feb-19 18:26 33.978854 -117.631508 133 642ft 12kts
05-Feb-19 18:27 33.976735 -117.630836 180 638ft 0kts
05-Feb-19 18:28 33.975839 -117.632128 268 633ft 23kts
05-Feb-19 18:29 33.976438 -117.666874 273 1641ft 127kts
05-Feb-19 18:30 33.977601 -117.710409 271 3291ft 145kts
05-Feb-19 18:31 33.986268 -117.767695 301 4976ft 202kts
05-Feb-19 18:32 34.011169 -117.833084 296 6793ft 218kts
05-Feb-19 18:33 34.038167 -117.905655 295 7171ft 248kts
05-Feb-19 18:34 34.066345 -117.981446 295 7743ft 244kts
05-Feb-19 18:35 34.091617 -118.058911 292 8100ft 248kts
05-Feb-19 18:36 34.117580 -118.143564 285 8019ft 275kts
05-Feb-19 18:37 34.144162 -118.230597 285 8053ft 273kts
05-Feb-19 18:38 34.170736 -118.317838 285 8056ft 272kts
05-Feb-19 18:39 34.196910 -118.404004 285 8085ft 270kts
05-Feb-19 18:40 34.222984 -118.489673 286 8081ft 269kts
05-Feb-19 18:41 34.251642 -118.573670 287 8077ft 268kts
05-Feb-19 18:42 34.279793 -118.655802 287 8035ft 262kts
05-Feb-19 18:43 34.307184 -118.735926 287 7984ft 251kts
05-Feb-19 18:44 34.333485 -118.813070 287 7981ft 243kts
05-Feb-19 18:45 34.354516 -118.889665 267 7978ft 235kts
05-Feb-19 18:46 34.350230 -118.968836 263 7953ft 235kts
05-Feb-19 18:47 34.344421 -119.048757 263 7953ft 237kts
05-Feb-19 18:48 34.338679 -119.126158 263 7953ft 238kts
05-Feb-19 18:49 34.332765 -119.205107 264 7953ft 238kts
05-Feb-19 18:50 34.326725 -119.285028 263 7342ft 237kts
05-Feb-19 18:51 34.320757 -119.363164 263 6421ft 228kts
05-Feb-19 18:52 34.315023 -119.437780 262 5501ft 215kts
05-Feb-19 18:53 34.310543 -119.511904 278 4100ft 220kts
05-Feb-19 18:54 34.324597 -119.578546 282 3940ft 185kts
05-Feb-19 18:55 34.337473 -119.636500 281 3931ft 171kts
05-Feb-19 18:56 34.349369 -119.690969 281 3940ft 165kts
05-Feb-19 18:57 34.360379 -119.744824 273 3936ft 165kts
05-Feb-19 18:58 34.363974 -119.806117 272 3032ft 193kts
05-Feb-19 18:59 34.367296 -119.865387 272 2999ft 166kts
05-Feb-19 19:00 34.370462 -119.921790 272 3005ft 172kts
05-Feb-19 19:01 34.373965 -119.983646 272 2105ft 195kts
05-Feb-19 19:02 34.377396 -120.043423 272 1792ft 156kts
05-Feb-19 19:03 34.407650 -120.056340 47 1795ft 142kts
05-Feb-19 19:04 34.425209 -120.016952 96 1798ft 137kts
05-Feb-19 19:05 34.424947 -119.974104 91 1791ft 118kts
05-Feb-19 19:06 34.425903 -119.929242 90 1262ft 147kts
05-Feb-19 19:07 34.426963 -119.880895 91 523ft 115kts
05-Feb-19 19:08 34.427596 -119.849607 90 14ft 74kts
05-Feb-19 19:09 34.426875 -119.846349 181 14ft 0kts
05-Feb-19 19:10 34.426875 -119.846349 181 14ft 0kts
05-Feb-19 19:11 34.426875 -119.846349 181 14ft 0kts
05-Feb-19 19:12 34.426643 -119.846181 129 14ft 6kts
05-Feb-19 19:14 34.426657 -119.840707 87 14ft 21kts
05-Feb-19 19:15 34.425922 -119.838146 166 12ft 5kts
05-Feb-19 19:16 34.423064 -119.837312 169 13ft 19kts
05-Feb-19 19:17 34.423288 -119.835862 259 11ft 0kts
05-Feb-19 19:18 34.423288 -119.835862 259 11ft 0kts
05-Feb-19 19:19 34.423288 -119.835862 259 11ft 0kts
05-Feb-19 19:20 34.423288 -119.835862 259 11ft 0kts
05-Feb-19 19:21 34.423288 -119.835862 259 11ft 0kts
05-Feb-19 19:22 34.423288 -119.835862 259 11ft 0kts
05-Feb-19 19:23 34.423288 -119.835862 259 11ft 0kts
05-Feb-19 19:24 34.423288 -119.835862 259 11ft 0kts

Navigation Log

Ident Type
Flight plan parsing failed, navigation log unavailable